CSN6735 ZJSY-ZGGG
Flight info
| Callsign | CSN6735 |
|---|---|
| Flight time | 1h 6m |
| Altitude | 37100 |
| Route | PORAP9YD PORAP W222 NUMKU W223 AGTEL W71 LH DCT GYA GYA1 |
| Aircraft | A320/M-SDE3FGHIRWY/LB1 |
Departure
| Time | 2026-05-04 13:49 |
|---|---|
| Airport | Sanya Phoenix International Airport (ZJSY) |
Arrival
| Time | 2026-05-04 14:55 |
|---|---|
| Airport | Guangzhou Baiyun International Airport (ZGGG) |
| Time | Latitude | Longitude | Altitude | Speed | Heading |
|---|---|---|---|---|---|
| 2026-05-04 13:36 | 18.30759 | 109.40457 | 89 ft | 0 kts | 353° |
| 2026-05-04 13:38 | 18.30741 | 109.40460 | 83 ft | 4 kts | 355° |
| 2026-05-04 13:39 | 18.30714 | 109.40463 | 83 ft | 4 kts | 347° |
| 2026-05-04 13:39 | 18.30689 | 109.40472 | 81 ft | 4 kts | 336° |
| 2026-05-04 13:39 | 18.30683 | 109.40474 | 81 ft | 0 kts | 337° |
| 2026-05-04 13:40 | 18.30676 | 109.40477 | 81 ft | 1 kts | 326° |
| 2026-05-04 13:40 | 18.30677 | 109.40476 | 81 ft | 0 kts | 326° |
| 2026-05-04 13:42 | 18.30684 | 109.40432 | 82 ft | 17 kts | 267° |
| 2026-05-04 13:42 | 18.30669 | 109.40323 | 78 ft | 15 kts | 261° |
| 2026-05-04 13:42 | 18.30638 | 109.40233 | 70 ft | 12 kts | 207° |
| 2026-05-04 13:42 | 18.30558 | 109.40238 | 76 ft | 13 kts | 172° |
| 2026-05-04 13:43 | 18.30466 | 109.40251 | 74 ft | 13 kts | 173° |
| 2026-05-04 13:43 | 18.30406 | 109.40211 | 66 ft | 11 kts | 252° |
| 2026-05-04 13:43 | 18.30350 | 109.40132 | 72 ft | 15 kts | 195° |
| 2026-05-04 13:43 | 18.30312 | 109.40047 | 67 ft | 15 kts | 261° |
| 2026-05-04 13:44 | 18.30287 | 109.39854 | 65 ft | 29 kts | 262° |
| 2026-05-04 13:44 | 18.30246 | 109.39670 | 68 ft | 26 kts | 233° |
| 2026-05-04 13:44 | 18.30187 | 109.39638 | 74 ft | 0 kts | 178° |
| 2026-05-04 13:46 | 18.30163 | 109.39638 | 69 ft | 4 kts | 179° |
| 2026-05-04 13:46 | 18.30129 | 109.39640 | 72 ft | 11 kts | 175° |
| 2026-05-04 13:46 | 18.30092 | 109.39708 | 74 ft | 12 kts | 81° |
| 2026-05-04 13:47 | 18.30098 | 109.39748 | 75 ft | 0 kts | 82° |
| 2026-05-04 13:48 | 18.30117 | 109.39887 | 69 ft | 58 kts | 81° |
| 2026-05-04 13:48 | 18.30212 | 109.40584 | 78 ft | 131 kts | 82° |
| 2026-05-04 13:48 | 18.30359 | 109.41725 | 205 ft | 176 kts | 81° |
| 2026-05-04 13:49 | 18.30535 | 109.43090 | 626 ft | 202 kts | 82° |
| 2026-05-04 13:49 | 18.30738 | 109.44588 | 1274 ft | 209 kts | 81° |
| 2026-05-04 13:49 | 18.30946 | 109.46101 | 2260 ft | 208 kts | 82° |
| 2026-05-04 13:49 | 18.31181 | 109.47602 | 3268 ft | 209 kts | 74° |
| 2026-05-04 13:50 | 18.31976 | 109.48894 | 4138 ft | 217 kts | 40° |
| 2026-05-04 13:50 | 18.33216 | 109.49814 | 5100 ft | 220 kts | 36° |
| 2026-05-04 13:50 | 18.34484 | 109.50731 | 5959 ft | 223 kts | 35° |
| 2026-05-04 13:50 | 18.35773 | 109.51668 | 6701 ft | 227 kts | 35° |
| 2026-05-04 13:51 | 18.37083 | 109.52622 | 7384 ft | 231 kts | 35° |
| 2026-05-04 13:51 | 18.38412 | 109.53592 | 8079 ft | 235 kts | 35° |
| 2026-05-04 13:51 | 18.39766 | 109.54581 | 8790 ft | 239 kts | 35° |
| 2026-05-04 13:51 | 18.41140 | 109.55587 | 9482 ft | 243 kts | 34° |
| 2026-05-04 13:52 | 18.43962 | 109.57664 | 10783 ft | 251 kts | 34° |
| 2026-05-04 13:52 | 18.45398 | 109.58722 | 11462 ft | 254 kts | 34° |
| 2026-05-04 13:52 | 18.46853 | 109.59797 | 12127 ft | 257 kts | 33° |
| 2026-05-04 13:53 | 18.48325 | 109.60882 | 12798 ft | 260 kts | 33° |
| 2026-05-04 13:53 | 18.49904 | 109.61832 | 13343 ft | 269 kts | 22° |
| 2026-05-04 13:53 | 18.51681 | 109.62687 | 13589 ft | 292 kts | 22° |
| 2026-05-04 13:54 | 18.55677 | 109.64576 | 13966 ft | 339 kts | 22° |
| 2026-05-04 13:54 | 18.57141 | 109.65269 | 14048 ft | 354 kts | 22° |
| 2026-05-04 13:54 | 18.61884 | 109.67529 | 14393 ft | 390 kts | 22° |
| 2026-05-04 13:55 | 18.64376 | 109.68726 | 14864 ft | 396 kts | 22° |
| 2026-05-04 13:55 | 18.69443 | 109.71164 | 15917 ft | 404 kts | 22° |
| 2026-05-04 13:55 | 18.72017 | 109.72402 | 16431 ft | 408 kts | 22° |
| 2026-05-04 13:56 | 18.74608 | 109.73650 | 16947 ft | 412 kts | 22° |
| 2026-05-04 13:56 | 18.77224 | 109.74911 | 17461 ft | 416 kts | 22° |
| 2026-05-04 13:56 | 18.82542 | 109.77466 | 18457 ft | 423 kts | 22° |
| 2026-05-04 13:57 | 18.85231 | 109.78757 | 18901 ft | 427 kts | 22° |
| 2026-05-04 13:57 | 18.87949 | 109.80062 | 19350 ft | 430 kts | 22° |
| 2026-05-04 13:58 | 18.96212 | 109.84026 | 20628 ft | 440 kts | 22° |
| 2026-05-04 13:58 | 19.01817 | 109.86724 | 21437 ft | 445 kts | 22° |
| 2026-05-04 13:58 | 19.04647 | 109.88087 | 21829 ft | 448 kts | 22° |
| 2026-05-04 13:59 | 19.07494 | 109.89459 | 22214 ft | 452 kts | 22° |
| 2026-05-04 13:59 | 19.10359 | 109.90843 | 22598 ft | 454 kts | 22° |
| 2026-05-04 13:59 | 19.16149 | 109.93638 | 23331 ft | 460 kts | 21° |
| 2026-05-04 14:00 | 19.19058 | 109.95042 | 23669 ft | 463 kts | 21° |
| 2026-05-04 14:00 | 19.24954 | 109.97889 | 24254 ft | 468 kts | 21° |
| 2026-05-04 14:00 | 19.27937 | 109.99315 | 24560 ft | 470 kts | 21° |
| 2026-05-04 14:01 | 19.30937 | 110.00714 | 24849 ft | 472 kts | 20° |
| 2026-05-04 14:01 | 19.33948 | 110.02104 | 25146 ft | 474 kts | 20° |
| 2026-05-04 14:01 | 19.39996 | 110.04972 | 25735 ft | 478 kts | 21° |
| 2026-05-04 14:02 | 19.43025 | 110.06440 | 26025 ft | 481 kts | 21° |
| 2026-05-04 14:02 | 19.46066 | 110.07921 | 26290 ft | 483 kts | 21° |
| 2026-05-04 14:02 | 19.49140 | 110.09415 | 26427 ft | 488 kts | 21° |
| 2026-05-04 14:02 | 19.52250 | 110.10920 | 26545 ft | 494 kts | 21° |
| 2026-05-04 14:03 | 19.55388 | 110.12435 | 26667 ft | 498 kts | 21° |
| 2026-05-04 14:03 | 19.58558 | 110.13966 | 26789 ft | 503 kts | 21° |
| 2026-05-04 14:03 | 19.61736 | 110.15505 | 27265 ft | 498 kts | 21° |
| 2026-05-04 14:03 | 19.64868 | 110.17025 | 27692 ft | 496 kts | 21° |
| 2026-05-04 14:04 | 19.71121 | 110.20058 | 28248 ft | 499 kts | 21° |
| 2026-05-04 14:04 | 19.74329 | 110.21613 | 28536 ft | 501 kts | 21° |
| 2026-05-04 14:04 | 19.77459 | 110.23131 | 28823 ft | 501 kts | 21° |
| 2026-05-04 14:05 | 19.83839 | 110.26225 | 29565 ft | 500 kts | 20° |
| 2026-05-04 14:05 | 19.86998 | 110.27757 | 29908 ft | 499 kts | 20° |
| 2026-05-04 14:05 | 19.90160 | 110.29292 | 30219 ft | 499 kts | 20° |
| 2026-05-04 14:06 | 19.93318 | 110.30826 | 30527 ft | 499 kts | 20° |
| 2026-05-04 14:06 | 19.96458 | 110.32352 | 30857 ft | 497 kts | 20° |
| 2026-05-04 14:06 | 19.99607 | 110.33883 | 31190 ft | 496 kts | 20° |
| 2026-05-04 14:06 | 20.02744 | 110.35393 | 31523 ft | 494 kts | 18° |
| 2026-05-04 14:07 | 20.05984 | 110.36526 | 31862 ft | 486 kts | 8° |
| 2026-05-04 14:07 | 20.09288 | 110.37086 | 32194 ft | 478 kts | 359° |
| 2026-05-04 14:07 | 20.12581 | 110.37085 | 32529 ft | 470 kts | 349° |
| 2026-05-04 14:07 | 20.15775 | 110.36572 | 32870 ft | 463 kts | 343° |
| 2026-05-04 14:08 | 20.18935 | 110.35896 | 33226 ft | 462 kts | 343° |
| 2026-05-04 14:08 | 20.22078 | 110.35230 | 33600 ft | 460 kts | 343° |
| 2026-05-04 14:08 | 20.25221 | 110.34569 | 34016 ft | 459 kts | 343° |
| 2026-05-04 14:08 | 20.28341 | 110.33913 | 34375 ft | 457 kts | 343° |
| 2026-05-04 14:09 | 20.34554 | 110.32609 | 35048 ft | 453 kts | 343° |
| 2026-05-04 14:09 | 20.37645 | 110.31959 | 35364 ft | 452 kts | 343° |
| 2026-05-04 14:10 | 20.43792 | 110.30654 | 35960 ft | 449 kts | 343° |
| 2026-05-04 14:10 | 20.46852 | 110.30001 | 36239 ft | 448 kts | 343° |
| 2026-05-04 14:10 | 20.49945 | 110.29498 | 36502 ft | 453 kts | 351° |
| 2026-05-04 14:10 | 20.53117 | 110.29519 | 36748 ft | 459 kts | 358° |
| 2026-05-04 14:11 | 20.56303 | 110.29738 | 36995 ft | 458 kts | 358° |
| 2026-05-04 14:11 | 20.62668 | 110.30167 | 37156 ft | 459 kts | 358° |
| 2026-05-04 14:11 | 20.65859 | 110.30375 | 37154 ft | 459 kts | 358° |
| 2026-05-04 14:12 | 20.72244 | 110.30788 | 37156 ft | 460 kts | 358° |
| 2026-05-04 14:13 | 20.81822 | 110.31412 | 37159 ft | 460 kts | 358° |
| 2026-05-04 14:13 | 20.88205 | 110.31834 | 37161 ft | 460 kts | 358° |
| 2026-05-04 14:14 | 20.94598 | 110.32259 | 37164 ft | 461 kts | 358° |
| 2026-05-04 14:14 | 21.04193 | 110.32864 | 37170 ft | 460 kts | 357° |
| 2026-05-04 14:15 | 21.10587 | 110.33682 | 37174 ft | 470 kts | 11° |
| 2026-05-04 14:15 | 21.16509 | 110.36845 | 37171 ft | 487 kts | 33° |
| 2026-05-04 14:16 | 21.23782 | 110.44573 | 37168 ft | 493 kts | 41° |
| 2026-05-04 14:17 | 21.31000 | 110.52449 | 37170 ft | 493 kts | 41° |
| 2026-05-04 14:18 | 21.38218 | 110.60329 | 37174 ft | 494 kts | 41° |
| 2026-05-04 14:19 | 21.47824 | 110.70880 | 37180 ft | 494 kts | 41° |
| 2026-05-04 14:19 | 21.52622 | 110.76148 | 37182 ft | 494 kts | 41° |
| 2026-05-04 14:20 | 21.57425 | 110.81427 | 37184 ft | 494 kts | 41° |
| 2026-05-04 14:20 | 21.62235 | 110.86716 | 37188 ft | 494 kts | 41° |
| 2026-05-04 14:21 | 21.69445 | 110.94653 | 37186 ft | 494 kts | 41° |
| 2026-05-04 14:21 | 21.74240 | 110.99947 | 37186 ft | 495 kts | 41° |
| 2026-05-04 14:22 | 21.79041 | 111.05255 | 37189 ft | 495 kts | 41° |
| 2026-05-04 14:22 | 21.83825 | 111.10509 | 37194 ft | 494 kts | 41° |
| 2026-05-04 14:23 | 21.91007 | 111.18477 | 37194 ft | 495 kts | 41° |
| 2026-05-04 14:24 | 21.95790 | 111.23803 | 37197 ft | 495 kts | 41° |
| 2026-05-04 14:24 | 22.00579 | 111.29123 | 37196 ft | 495 kts | 41° |
| 2026-05-04 14:25 | 22.05377 | 111.34451 | 37199 ft | 495 kts | 41° |
| 2026-05-04 14:25 | 22.12587 | 111.42450 | 37201 ft | 496 kts | 41° |
| 2026-05-04 14:26 | 22.17390 | 111.47793 | 37202 ft | 496 kts | 41° |
| 2026-05-04 14:26 | 22.22181 | 111.53156 | 37206 ft | 496 kts | 41° |
| 2026-05-04 14:27 | 22.26973 | 111.58513 | 37201 ft | 496 kts | 41° |
| 2026-05-04 14:27 | 22.31774 | 111.63872 | 37197 ft | 496 kts | 41° |
| 2026-05-04 14:28 | 22.36580 | 111.69233 | 37186 ft | 497 kts | 41° |
| 2026-05-04 14:28 | 22.41381 | 111.74608 | 37188 ft | 497 kts | 41° |
| 2026-05-04 14:29 | 22.50975 | 111.85376 | 37192 ft | 498 kts | 41° |
| 2026-05-04 14:30 | 22.53376 | 111.88072 | 36945 ft | 498 kts | 41° |
| 2026-05-04 14:30 | 22.55801 | 111.90794 | 35781 ft | 509 kts | 41° |
| 2026-05-04 14:30 | 22.60770 | 111.96374 | 33850 ft | 522 kts | 41° |
| 2026-05-04 14:31 | 22.63302 | 111.99216 | 32754 ft | 528 kts | 41° |
| 2026-05-04 14:31 | 22.68446 | 112.04998 | 30856 ft | 533 kts | 41° |
| 2026-05-04 14:32 | 22.73605 | 112.10823 | 28671 ft | 539 kts | 43° |
| 2026-05-04 14:32 | 22.76204 | 112.13764 | 27584 ft | 540 kts | 43° |
| 2026-05-04 14:32 | 22.78801 | 112.16706 | 26508 ft | 540 kts | 43° |
| 2026-05-04 14:32 | 22.81384 | 112.19629 | 25740 ft | 534 kts | 43° |
| 2026-05-04 14:33 | 22.83933 | 112.22514 | 25420 ft | 527 kts | 43° |
| 2026-05-04 14:33 | 22.86467 | 112.25381 | 25211 ft | 524 kts | 43° |
| 2026-05-04 14:33 | 22.88982 | 112.28223 | 25146 ft | 523 kts | 43° |
| 2026-05-04 14:33 | 22.91505 | 112.31075 | 25177 ft | 524 kts | 43° |
| 2026-05-04 14:34 | 22.94025 | 112.33923 | 25172 ft | 523 kts | 43° |
| 2026-05-04 14:34 | 22.96545 | 112.36775 | 25168 ft | 523 kts | 43° |
| 2026-05-04 14:34 | 22.99066 | 112.39636 | 25169 ft | 524 kts | 43° |
| 2026-05-04 14:34 | 23.01580 | 112.42493 | 25079 ft | 524 kts | 43° |
| 2026-05-04 14:35 | 23.03993 | 112.45460 | 24163 ft | 526 kts | 51° |
| 2026-05-04 14:35 | 23.05268 | 112.47705 | 23444 ft | 530 kts | 62° |
| 2026-05-04 14:35 | 23.06764 | 112.52775 | 22149 ft | 526 kts | 82° |
| 2026-05-04 14:35 | 23.06947 | 112.56697 | 21489 ft | 515 kts | 91° |
| 2026-05-04 14:36 | 23.06922 | 112.60524 | 21233 ft | 502 kts | 91° |
| 2026-05-04 14:36 | 23.06916 | 112.63027 | 21118 ft | 498 kts | 91° |
| 2026-05-04 14:36 | 23.06912 | 112.66787 | 21172 ft | 497 kts | 91° |
| 2026-05-04 14:36 | 23.06909 | 112.70512 | 21159 ft | 486 kts | 91° |
| 2026-05-04 14:37 | 23.06905 | 112.74111 | 21118 ft | 467 kts | 91° |
| 2026-05-04 14:37 | 23.06896 | 112.77545 | 20986 ft | 446 kts | 91° |
| 2026-05-04 14:37 | 23.06885 | 112.80816 | 20866 ft | 418 kts | 91° |
| 2026-05-04 14:37 | 23.06871 | 112.83895 | 20535 ft | 400 kts | 91° |
| 2026-05-04 14:38 | 23.06855 | 112.86879 | 19952 ft | 392 kts | 91° |
| 2026-05-04 14:38 | 23.06835 | 112.89873 | 19302 ft | 387 kts | 91° |
| 2026-05-04 14:38 | 23.06811 | 112.92746 | 18680 ft | 383 kts | 91° |
| 2026-05-04 14:38 | 23.06784 | 112.95625 | 18028 ft | 380 kts | 91° |
| 2026-05-04 14:39 | 23.06756 | 112.98504 | 17360 ft | 375 kts | 91° |
| 2026-05-04 14:39 | 23.06727 | 113.01329 | 16716 ft | 371 kts | 92° |
| 2026-05-04 14:39 | 23.06669 | 113.04076 | 16196 ft | 363 kts | 98° |
| 2026-05-04 14:40 | 23.04720 | 113.08948 | 15706 ft | 367 kts | 126° |
| 2026-05-04 14:40 | 23.03325 | 113.11369 | 15460 ft | 383 kts | 126° |
| 2026-05-04 14:40 | 23.01942 | 113.13755 | 15137 ft | 366 kts | 126° |
| 2026-05-04 14:40 | 23.00625 | 113.16059 | 14668 ft | 355 kts | 123° |
| 2026-05-04 14:41 | 22.99737 | 113.18537 | 14213 ft | 352 kts | 104° |
| 2026-05-04 14:41 | 22.99615 | 113.21163 | 13742 ft | 347 kts | 84° |
| 2026-05-04 14:41 | 23.01559 | 113.25725 | 12736 ft | 330 kts | 43° |
| 2026-05-04 14:42 | 23.05343 | 113.28094 | 11753 ft | 305 kts | 7° |
| 2026-05-04 14:42 | 23.07404 | 113.28297 | 11277 ft | 292 kts | 351° |
| 2026-05-04 14:42 | 23.09353 | 113.27930 | 10934 ft | 276 kts | 341° |
| 2026-05-04 14:43 | 23.11222 | 113.27450 | 10369 ft | 276 kts | 341° |
| 2026-05-04 14:43 | 23.12941 | 113.27019 | 9829 ft | 277 kts | 342° |
| 2026-05-04 14:43 | 23.14807 | 113.26557 | 9197 ft | 276 kts | 343° |
| 2026-05-04 14:43 | 23.16653 | 113.26100 | 8583 ft | 276 kts | 343° |
| 2026-05-04 14:44 | 23.18518 | 113.25639 | 7970 ft | 274 kts | 344° |
| 2026-05-04 14:44 | 23.20368 | 113.25183 | 7367 ft | 272 kts | 344° |
| 2026-05-04 14:44 | 23.22206 | 113.24728 | 6780 ft | 270 kts | 345° |
| 2026-05-04 14:44 | 23.24026 | 113.24275 | 6177 ft | 267 kts | 347° |
| 2026-05-04 14:45 | 23.25863 | 113.24234 | 5554 ft | 265 kts | 11° |
| 2026-05-04 14:45 | 23.27634 | 113.24700 | 5229 ft | 255 kts | 13° |
| 2026-05-04 14:45 | 23.29290 | 113.25150 | 5961 ft | 237 kts | 12° |
| 2026-05-04 14:45 | 23.30917 | 113.25317 | 6685 ft | 234 kts | 347° |
| 2026-05-04 14:46 | 23.32346 | 113.24592 | 7271 ft | 227 kts | 314° |
| 2026-05-04 14:46 | 23.33202 | 113.23191 | 7534 ft | 221 kts | 285° |
| 2026-05-04 14:46 | 23.33377 | 113.21548 | 7226 ft | 220 kts | 269° |
| 2026-05-04 14:46 | 23.33328 | 113.19884 | 6888 ft | 221 kts | 266° |
| 2026-05-04 14:47 | 23.33244 | 113.18221 | 6598 ft | 221 kts | 266° |
| 2026-05-04 14:47 | 23.32972 | 113.16581 | 6278 ft | 220 kts | 244° |
| 2026-05-04 14:47 | 23.31968 | 113.15358 | 5964 ft | 221 kts | 210° |
| 2026-05-04 14:47 | 23.30498 | 113.14867 | 5625 ft | 224 kts | 189° |
| 2026-05-04 14:48 | 23.28965 | 113.14660 | 5388 ft | 220 kts | 186° |
| 2026-05-04 14:48 | 23.27444 | 113.14484 | 5142 ft | 218 kts | 186° |
| 2026-05-04 14:48 | 23.25947 | 113.14309 | 5008 ft | 217 kts | 186° |
| 2026-05-04 14:48 | 23.24449 | 113.14129 | 4906 ft | 215 kts | 186° |
| 2026-05-04 14:49 | 23.22997 | 113.13952 | 4782 ft | 206 kts | 186° |
| 2026-05-04 14:49 | 23.21598 | 113.13807 | 4671 ft | 197 kts | 178° |
| 2026-05-04 14:49 | 23.20310 | 113.14172 | 4538 ft | 185 kts | 150° |
| 2026-05-04 14:49 | 23.19392 | 113.15102 | 4317 ft | 181 kts | 122° |
| 2026-05-04 14:50 | 23.18994 | 113.16383 | 4071 ft | 180 kts | 94° |
| 2026-05-04 14:50 | 23.19199 | 113.17716 | 3824 ft | 181 kts | 67° |
| 2026-05-04 14:50 | 23.19957 | 113.18794 | 3585 ft | 182 kts | 39° |
| 2026-05-04 14:50 | 23.21010 | 113.19555 | 3337 ft | 182 kts | 34° |
| 2026-05-04 14:51 | 23.22027 | 113.20355 | 3101 ft | 178 kts | 50° |
| 2026-05-04 14:51 | 23.22709 | 113.21433 | 2983 ft | 168 kts | 60° |
| 2026-05-04 14:51 | 23.23340 | 113.22529 | 2552 ft | 178 kts | 60° |
| 2026-05-04 14:51 | 23.24010 | 113.23699 | 2170 ft | 184 kts | 59° |
| 2026-05-04 14:52 | 23.24896 | 113.24695 | 2006 ft | 185 kts | 35° |
| 2026-05-04 14:52 | 23.26082 | 113.25221 | 2034 ft | 186 kts | 15° |
| 2026-05-04 14:52 | 23.27334 | 113.25558 | 2010 ft | 186 kts | 16° |
| 2026-05-04 14:52 | 23.28595 | 113.25897 | 1844 ft | 186 kts | 15° |
| 2026-05-04 14:53 | 23.29839 | 113.26232 | 1623 ft | 183 kts | 15° |
| 2026-05-04 14:53 | 23.31070 | 113.26563 | 1396 ft | 181 kts | 15° |
| 2026-05-04 14:53 | 23.32290 | 113.26892 | 1157 ft | 180 kts | 15° |
| 2026-05-04 14:53 | 23.33505 | 113.27220 | 932 ft | 179 kts | 14° |
| 2026-05-04 14:54 | 23.34705 | 113.27543 | 696 ft | 171 kts | 14° |
| 2026-05-04 14:54 | 23.35787 | 113.27835 | 476 ft | 152 kts | 14° |
| 2026-05-04 14:54 | 23.36777 | 113.28101 | 277 ft | 142 kts | 14° |
| 2026-05-04 14:54 | 23.37723 | 113.28360 | 100 ft | 139 kts | 15° |
| 2026-05-04 14:55 | 23.38614 | 113.28600 | 56 ft | 116 kts | 14° |
| 2026-05-04 14:55 | 23.39219 | 113.28766 | 59 ft | 65 kts | 14° |
| 2026-05-04 14:55 | 23.39623 | 113.28876 | 56 ft | 50 kts | 14° |
| 2026-05-04 14:55 | 23.39825 | 113.29010 | 51 ft | 24 kts | 44° |
| 2026-05-04 14:56 | 23.39868 | 113.29081 | 58 ft | 8 kts | 84° |
| 2026-05-04 14:56 | 23.39860 | 113.29137 | 58 ft | 7 kts | 103° |
| 2026-05-04 14:56 | 23.39851 | 113.29183 | 57 ft | 6 kts | 92° |
| 2026-05-04 14:56 | 23.39916 | 113.29237 | 51 ft | 26 kts | 13° |
| 2026-05-04 14:57 | 23.40126 | 113.29293 | 54 ft | 28 kts | 14° |
| 2026-05-04 14:57 | 23.40288 | 113.29337 | 53 ft | 16 kts | 24° |
| 2026-05-04 14:57 | 23.40302 | 113.29424 | 55 ft | 12 kts | 114° |
| 2026-05-04 14:57 | 23.40275 | 113.29503 | 59 ft | 11 kts | 104° |
| 2026-05-04 14:58 | 23.40258 | 113.29576 | 52 ft | 9 kts | 105° |
| 2026-05-04 14:58 | 23.40241 | 113.29637 | 56 ft | 8 kts | 122° |
| 2026-05-04 14:58 | 23.40198 | 113.29665 | 54 ft | 7 kts | 169° |
| 2026-05-04 14:58 | 23.40160 | 113.29676 | 54 ft | 5 kts | 140° |
| 2026-05-04 14:59 | 23.40152 | 113.29708 | 57 ft | 4 kts | 103° |
| 2026-05-04 14:59 | 23.40148 | 113.29725 | 57 ft | 0 kts | 103° |